Date,TemperatureHighF,TemperatureAvgF,TemperatureLowF,DewpointHighF,DewpointAvgF,DewpointLowF,HumidityHigh,HumidityAvg,HumidityLow,PressureMaxIn,PressureMinIn,WindSpeedMaxMPH,WindSpeedAvgMPH,GustSpeedMaxMPH,PrecipitationSumIn
2013-2-1,59.5,50.7,39.3,35.0,26.1,18.0,58,40,22,30.35,30.19,15,5,22,0.00
2013-2-2,58.8,50.8,35.4,41.0,37.0,28.0,77,60,44,30.36,30.14,5,1,7,0.00
2013-2-3,62.3,54.6,45.0,37.0,35.0,32.0,71,49,34,30.12,29.95,12,5,19,0.00
2013-2-4,54.7,49.0,42.6,42.0,36.4,32.0,89,63,43,30.14,30.05,5,1,7,0.00
2013-2-5,69.3,57.8,41.9,53.0,48.6,40.0,92,73,49,30.09,29.97,6,1,10,0.00
2013-2-6,72.5,60.8,52.4,57.0,54.4,50.0,93,81,50,30.16,30.09,8,2,12,0.00
2013-2-7,63.4,58.4,55.3,62.0,56.7,53.0,97,94,87,30.11,29.72,11,4,20,1.41
2013-2-8,64.9,56.7,48.7,53.0,50.4,46.0,94,80,64,30.05,29.75,11,3,16,0.00
2013-2-9,62.6,52.8,45.2,49.0,40.8,34.0,89,66,35,30.32,30.08,6,2,10,0.00
2013-2-10,65.1,56.7,43.3,56.0,50.7,42.0,96,81,69,30.36,30.17,12,4,18,0.00
2013-2-11,65.7,62.7,59.5,62.0,60.4,58.0,96,92,86,30.18,30.06,6,1,7,0.91
2013-2-12,59.3,56.1,53.0,59.0,54.5,52.0,97,94,85,30.12,29.87,10,2,11,2.39
2013-2-13,76.1,64.6,52.7,66.0,55.2,47.0,97,74,48,29.90,29.70,12,4,24,0.85
2013-2-14,53.6,49.3,44.6,48.0,43.9,42.0,93,82,68,30.07,29.89,9,1,13,0.00
2013-2-15,61.3,52.1,41.3,46.0,43.5,35.0,95,74,40,30.11,29.97,6,1,10,0.00
2013-2-16,52.6,46.2,38.8,48.0,35.4,18.0,92,68,40,30.07,29.87,17,5,25,0.01
2013-2-17,48.9,41.6,32.5,25.0,17.9,10.0,57,40,21,30.32,30.07,15,4,21,0.00
2013-2-18,55.3,45.4,35.9,37.0,28.5,22.0,87,55,31,30.43,30.25,8,1,12,0.00
2013-2-19,63.5,57.9,41.1,55.0,52.3,37.0,96,83,62,30.25,29.98,5,2,13,0.06
2013-2-20,57.7,49.9,39.9,50.0,35.6,28.0,93,60,38,30.17,30.07,8,2,12,0.00
2013-2-21,65.7,56.4,41.8,51.0,42.8,32.0,96,64,29,30.18,30.08,6,2,10,0.00
2013-2-22,62.6,58.1,54.2,61.0,55.8,50.0,96,92,84,30.15,30.02,16,4,26,0.14
2013-2-23,58.2,54.1,50.8,57.0,53.2,50.0,97,97,96,29.96,29.82,10,2,18,1.52
2013-2-24,71.0,58.3,50.2,53.0,50.6,46.0,95,78,43,30.00,29.92,7,2,10,0.01
2013-2-25,57.0,50.9,43.9,54.0,49.3,43.0,96,94,85,30.05,29.88,17,4,30,0.71
2013-2-26,72.3,63.7,47.1,67.0,58.9,46.0,97,85,64,29.92,29.58,17,4,26,0.93
2013-2-27,56.5,52.6,49.3,44.0,40.7,37.0,72,64,55,29.92,29.84,15,4,20,0.00
2013-2-28,61.8,55.1,48.5,44.0,37.7,33.0,79,54,35,29.90,29.80,14,5,19,0.00